createdAt,value
2023-04-15T00:00:59.294Z,98418.81
2023-04-15T00:03:26.347Z,98419.81
2023-04-15T00:05:52.900Z,98417.63
2023-04-15T00:08:20.731Z,98413.03
2023-04-15T00:10:47.102Z,98414.75
2023-04-15T00:13:13.654Z,98419.94
2023-04-15T00:15:40.059Z,98412.81
2023-04-15T00:18:08.311Z,98411.84
2023-04-15T00:20:36.170Z,98410.28
2023-04-15T00:23:03.923Z,98409.44
2023-04-15T00:25:30.936Z,98406.78
2023-04-15T00:27:57.327Z,98416.91
2023-04-15T00:30:23.847Z,98409.69
2023-04-15T00:32:50.289Z,98414.28
2023-04-15T00:35:17.712Z,98410.16
2023-04-15T00:37:46.087Z,98413.53
2023-04-15T00:40:13.616Z,98419.09
2023-04-15T00:42:40.468Z,98407.03
2023-04-15T00:45:08.602Z,98409.78
2023-04-15T00:47:37.541Z,98408.59
2023-04-15T00:50:04.877Z,98408.72
2023-04-15T00:52:32.481Z,98409.69
2023-04-15T00:54:59.669Z,98415.31
2023-04-15T00:57:27.867Z,98410.78
2023-04-15T00:59:56.308Z,98414.97
2023-04-15T01:02:23.882Z,98413.53
2023-04-15T01:04:50.649Z,98414.97
2023-04-15T01:07:17.334Z,98418.81
2023-04-15T01:09:44.382Z,98413.75
2023-04-15T01:12:15.424Z,98410.00
2023-04-15T01:14:42.463Z,98408.44
2023-04-15T01:17:09.176Z,98406.50
2023-04-15T01:19:39.666Z,98405.19
2023-04-15T01:22:06.171Z,98407.59
2023-04-15T01:24:34.215Z,98407.72
2023-04-15T01:27:01.476Z,98418.44
2023-04-15T01:29:29.420Z,98413.25
2023-04-15T01:31:56.648Z,98413.81
2023-04-15T01:34:23.729Z,98415.41
2023-04-15T01:36:50.166Z,98401.44
2023-04-15T01:39:17.038Z,98411.28
2023-04-15T01:41:44.026Z,98410.34
2023-04-15T01:44:10.839Z,98406.13
2023-04-15T01:46:37.573Z,98408.53
2023-04-15T01:49:04.409Z,98404.81
2023-04-15T01:51:31.204Z,98417.22
2023-04-15T01:53:57.705Z,98413.94
2023-04-15T01:56:26.945Z,98409.72
2023-04-15T01:58:53.648Z,98410.78
2023-04-15T02:01:21.024Z,98412.94
2023-04-15T02:03:48.114Z,98402.72
2023-04-15T02:06:15.488Z,98411.00
2023-04-15T02:08:42.182Z,98410.28
2023-04-15T02:11:09.355Z,98413.75
2023-04-15T02:13:36.182Z,98414.25
2023-04-15T02:16:03.192Z,98414.34
2023-04-15T02:18:29.643Z,98411.19
2023-04-15T02:20:58.266Z,98408.88
2023-04-15T02:23:25.013Z,98411.88
2023-04-15T02:25:53.432Z,98410.31
2023-04-15T02:28:21.607Z,98421.84
2023-04-15T02:30:53.365Z,98420.16
2023-04-15T02:33:21.203Z,98426.31
2023-04-15T02:35:48.142Z,98431.59
2023-04-15T02:38:17.002Z,98433.28
2023-04-15T02:40:43.649Z,98427.25
2023-04-15T02:43:10.001Z,98434.03
2023-04-15T02:45:36.566Z,98431.16
2023-04-15T02:48:06.315Z,98432.00
2023-04-15T02:50:33.099Z,98437.28
2023-04-15T02:53:01.210Z,98440.03
2023-04-15T02:55:28.029Z,98439.66
2023-04-15T02:57:54.478Z,98448.88
2023-04-15T03:00:20.888Z,98442.00
2023-04-15T03:02:47.554Z,98442.00
2023-04-15T03:05:14.524Z,98439.34
2023-04-15T03:07:40.976Z,98444.53
2023-04-15T03:10:08.624Z,98441.78
2023-04-15T03:12:35.200Z,98447.28
2023-04-15T03:15:02.055Z,98445.94
2023-04-15T03:17:28.433Z,98441.97
2023-04-15T03:19:54.943Z,98444.63
2023-04-15T03:22:21.304Z,98445.09
2023-04-15T03:24:47.728Z,98449.19
2023-04-15T03:27:14.178Z,98454.59
2023-04-15T03:29:40.512Z,98452.78
2023-04-15T03:32:07.154Z,98456.91
2023-04-15T03:34:33.503Z,98448.97
2023-04-15T03:37:00.164Z,98455.00
2023-04-15T03:39:27.031Z,98450.53
2023-04-15T03:41:53.492Z,98448.69
2023-04-15T03:44:19.845Z,98451.84
2023-04-15T03:46:46.553Z,98454.50
2023-04-15T03:49:13.920Z,98452.06
2023-04-15T03:51:40.613Z,98453.75
2023-04-15T03:54:07.025Z,98448.69
2023-04-15T03:56:33.433Z,98448.69
2023-04-15T03:59:00.387Z,98446.34
2023-04-15T04:01:26.909Z,98446.16
2023-04-15T04:03:53.791Z,98448.69
2023-04-15T04:06:20.464Z,98455.06
2023-04-15T04:08:46.819Z,98459.94
2023-04-15T04:11:13.844Z,98464.59
2023-04-15T04:13:40.688Z,98467.88
2023-04-15T04:16:07.250Z,98464.59
2023-04-15T04:18:34.208Z,98460.34
2023-04-15T04:21:01.012Z,98454.44
2023-04-15T04:23:27.411Z,98450.56
2023-04-15T04:25:54.101Z,98454.97
2023-04-15T04:28:20.448Z,98457.19
2023-04-15T04:30:46.947Z,98470.84
2023-04-15T04:33:13.741Z,98469.91
2023-04-15T04:35:40.283Z,98470.41
2023-04-15T04:38:06.606Z,98469.22
2023-04-15T04:40:33.153Z,98472.22
2023-04-15T04:43:00.288Z,98475.38
2023-04-15T04:45:27.314Z,98474.88
2023-04-15T04:47:53.725Z,98481.13
2023-04-15T04:50:20.894Z,98484.72
2023-04-15T04:52:47.265Z,98484.50
2023-04-15T04:55:13.623Z,98483.88
2023-04-15T04:57:39.962Z,98484.19
2023-04-15T05:00:08.899Z,98478.69
2023-04-15T05:02:35.963Z,98480.78
2023-04-15T05:05:02.538Z,98485.56
2023-04-15T05:07:28.889Z,98486.59
2023-04-15T05:09:55.298Z,98489.03
2023-04-15T05:12:22.413Z,98493.66
2023-04-15T05:14:48.826Z,98484.09
2023-04-15T05:17:15.238Z,98490.22
2023-04-15T05:19:41.629Z,98488.19
2023-04-15T05:22:08.354Z,98490.25
2023-04-15T05:24:35.048Z,98489.81
2023-04-15T05:27:02.085Z,98497.94
2023-04-15T05:29:28.461Z,98496.31
2023-04-15T05:31:55.198Z,98489.38
2023-04-15T05:34:21.690Z,98497.38
2023-04-15T05:36:48.621Z,98494.78
2023-04-15T05:39:14.983Z,98492.41
2023-04-15T05:41:41.742Z,98496.50
2023-04-15T05:44:08.109Z,98499.53
2023-04-15T05:46:34.561Z,98503.88
2023-04-15T05:49:02.130Z,98516.25
2023-04-15T05:51:28.891Z,98513.59
2023-04-15T05:53:55.515Z,98517.09
2023-04-15T05:56:22.531Z,98525.81
2023-04-15T05:58:48.943Z,98531.81
2023-04-15T06:01:15.589Z,98534.97
2023-04-15T06:03:42.938Z,98545.69
2023-04-15T06:06:09.869Z,98537.91
2023-04-15T06:08:36.496Z,98546.59
2023-04-15T06:11:02.918Z,98544.56
2023-04-15T06:13:29.464Z,98542.06
2023-04-15T06:15:55.956Z,98533.16
2023-04-15T06:18:22.339Z,98537.84
2023-04-15T06:20:48.805Z,98547.00
2023-04-15T06:23:15.450Z,98542.25
2023-04-15T06:25:41.808Z,98552.50
2023-04-15T06:28:08.190Z,98535.44
2023-04-15T06:30:35.903Z,98536.31
2023-04-15T06:33:05.380Z,98544.94
2023-04-15T06:35:32.083Z,98552.34
2023-04-15T06:37:58.529Z,98545.81
2023-04-15T06:40:24.867Z,98540.94
2023-04-15T06:42:51.614Z,98549.38
2023-04-15T06:45:18.162Z,98549.13
2023-04-15T06:47:44.572Z,98552.56
2023-04-15T06:50:11.530Z,98555.22
2023-04-15T06:52:38.090Z,98556.31
2023-04-15T06:55:05.507Z,98564.50
2023-04-15T06:57:33.848Z,98555.72
2023-04-15T07:00:02.084Z,98560.44
2023-04-15T07:02:28.528Z,98551.28
2023-04-15T07:04:55.715Z,98558.94
2023-04-15T07:07:22.152Z,98557.44
2023-04-15T07:09:48.536Z,98562.38
2023-04-15T07:12:15.513Z,98561.19
2023-04-15T07:14:42.122Z,98564.94
2023-04-15T07:17:09.853Z,98567.22
2023-04-15T07:19:36.459Z,98556.84
2023-04-15T07:22:03.100Z,98557.97
2023-04-15T07:24:29.986Z,98562.47
2023-04-15T07:26:59.418Z,98567.22
2023-04-15T07:29:27.190Z,98565.78
2023-04-15T07:31:53.959Z,98556.31
2023-04-15T07:34:20.878Z,98558.91
2023-04-15T07:36:50.469Z,98555.41
2023-04-15T07:39:17.191Z,98552.63
2023-04-15T07:41:43.713Z,98555.91
2023-04-15T07:44:10.705Z,98550.47
2023-04-15T07:46:38.342Z,98550.63
2023-04-15T07:49:05.098Z,98556.97
2023-04-15T07:51:32.162Z,98553.78
2023-04-15T07:53:58.830Z,98559.44
2023-04-15T07:56:26.350Z,98557.16
2023-04-15T07:58:53.043Z,98560.88
2023-04-15T08:01:19.559Z,98556.34
2023-04-15T08:03:46.304Z,98555.66
2023-04-15T08:06:13.013Z,98553.13
2023-04-15T08:08:39.435Z,98553.50
2023-04-15T08:11:05.866Z,98557.22
2023-04-15T08:13:32.337Z,98552.25
2023-04-15T08:16:22.673Z,98552.63
2023-04-15T08:18:50.282Z,98556.59
2023-04-15T08:21:18.025Z,98556.66
2023-04-15T08:23:45.811Z,98558.34
2023-04-15T08:26:13.150Z,98562.06
2023-04-15T08:28:41.593Z,98564.75
2023-04-15T08:31:08.619Z,98563.53
2023-04-15T08:33:36.113Z,98564.94
2023-04-15T08:36:02.770Z,98560.78
2023-04-15T08:38:29.415Z,98564.94
2023-04-15T08:40:58.471Z,98568.97
2023-04-15T08:43:29.084Z,98578.38
2023-04-15T08:45:56.626Z,98569.34
2023-04-15T08:48:24.861Z,98578.09
2023-04-15T08:50:52.086Z,98572.91
2023-04-15T08:53:19.136Z,98576.09
2023-04-15T08:55:46.771Z,98574.06
2023-04-15T08:58:14.236Z,98567.38
2023-04-15T09:00:41.968Z,98577.91
2023-04-15T09:03:09.388Z,98575.06
2023-04-15T09:05:37.111Z,98580.94
2023-04-15T09:08:05.300Z,98582.47
2023-04-15T09:10:33.407Z,98585.16
2023-04-15T09:13:02.069Z,98580.81
2023-04-15T09:15:29.777Z,98585.19
2023-04-15T09:17:56.933Z,98588.50
2023-04-15T09:20:24.887Z,98578.44
2023-04-15T09:22:52.235Z,98590.53
2023-04-15T09:25:21.663Z,98582.97
2023-04-15T09:27:49.351Z,98595.19
2023-04-15T09:30:16.694Z,98599.22
2023-04-15T09:32:54.382Z,98598.25
2023-04-15T09:35:22.163Z,98600.44
2023-04-15T09:37:50.431Z,98599.78
2023-04-15T09:40:37.918Z,98602.59
2023-04-15T09:43:06.488Z,98603.59
2023-04-15T09:45:34.378Z,98605.28
2023-04-15T09:48:27.034Z,98615.56
2023-04-15T09:50:57.515Z,98619.41
2023-04-15T09:53:25.831Z,98615.00
2023-04-15T09:56:02.873Z,98621.44
2023-04-15T09:58:31.456Z,98628.66
2023-04-15T10:00:59.505Z,98610.66
2023-04-15T10:03:31.775Z,98619.44
2023-04-15T10:06:01.964Z,98624.81
2023-04-15T10:08:30.794Z,98618.41
2023-04-15T10:10:58.173Z,98622.78
2023-04-15T10:13:26.766Z,98612.97
2023-04-15T10:15:59.455Z,98622.69
2023-04-15T10:18:28.195Z,98616.00
2023-04-15T10:20:55.466Z,98627.09
2023-04-15T10:23:23.265Z,98627.66
2023-04-15T10:25:52.562Z,98642.44
2023-04-15T10:28:20.104Z,98632.50
2023-04-15T10:30:47.895Z,98641.28
2023-04-15T10:33:16.201Z,98643.78
2023-04-15T10:35:43.437Z,98655.72
2023-04-15T10:38:35.805Z,98654.84
2023-04-15T10:41:22.197Z,98645.13
2023-04-15T10:43:56.714Z,98642.91
2023-04-15T10:46:45.622Z,98654.00
2023-04-15T10:49:14.208Z,98659.06
2023-04-15T10:51:47.285Z,98658.72
2023-04-15T10:54:31.565Z,98649.00
2023-04-15T10:57:03.802Z,98660.34
2023-04-15T10:59:30.972Z,98657.72
2023-04-15T11:02:01.906Z,98657.56
2023-04-15T11:04:54.455Z,98664.44
2023-04-15T11:07:38.184Z,98663.13
2023-04-15T11:10:13.770Z,98669.16
2023-04-15T11:12:41.068Z,98674.00
2023-04-15T11:15:34.900Z,98689.47
2023-04-15T11:18:17.848Z,98683.28
2023-04-15T11:20:45.249Z,98692.69
2023-04-15T11:23:15.370Z,98692.81
2023-04-15T11:25:42.927Z,98694.03
2023-04-15T11:28:09.874Z,98702.03
2023-04-15T11:30:37.473Z,98700.19
2023-04-15T11:33:05.746Z,98707.59
2023-04-15T11:35:32.655Z,98711.31
2023-04-15T11:38:03.726Z,98712.69
2023-04-15T11:40:31.543Z,98723.53
2023-04-15T11:43:16.620Z,98727.09
2023-04-15T11:45:53.838Z,98721.22
2023-04-15T11:48:23.246Z,98722.41
2023-04-15T11:50:58.336Z,98746.38
2023-04-15T11:53:25.263Z,98734.50
2023-04-15T11:55:53.798Z,98751.63
2023-04-15T11:58:23.226Z,98744.56
2023-04-15T12:00:55.052Z,98754.22
2023-04-15T12:03:29.474Z,98764.59
2023-04-15T12:06:13.747Z,98779.84
2023-04-15T12:09:06.445Z,98789.69
2023-04-15T12:11:48.598Z,98792.81
2023-04-15T12:14:28.232Z,98790.06
2023-04-15T12:17:00.452Z,98796.50
2023-04-15T12:19:29.314Z,98814.78
2023-04-15T12:22:10.117Z,98805.00
2023-04-15T12:24:37.674Z,98816.50
2023-04-15T12:27:09.811Z,98819.34
2023-04-15T12:29:38.596Z,98835.47
2023-04-15T12:32:07.895Z,98836.63
2023-04-15T12:34:40.385Z,98845.34
2023-04-15T12:37:09.489Z,98845.09
2023-04-15T12:39:41.552Z,98861.88
2023-04-15T12:42:08.899Z,98861.03
2023-04-15T12:44:36.169Z,98861.63
2023-04-15T12:47:03.504Z,98870.06
2023-04-15T12:49:32.500Z,98875.16
2023-04-15T12:52:01.410Z,98881.56
2023-04-15T12:54:32.025Z,98882.00
2023-04-15T12:56:59.228Z,98878.91
2023-04-15T12:59:25.816Z,98888.56
2023-04-15T13:01:53.430Z,98898.84
2023-04-15T13:04:20.716Z,98896.84
2023-04-15T13:06:47.271Z,98896.81
2023-04-15T13:09:13.848Z,98895.38
2023-04-15T13:11:40.734Z,98901.69
2023-04-15T13:14:09.111Z,98906.66
2023-04-15T13:16:36.100Z,98915.16
2023-04-15T13:19:03.788Z,98918.84
2023-04-15T13:21:35.920Z,98917.03
2023-04-15T13:24:03.842Z,98924.06
2023-04-15T13:26:32.140Z,98925.63
2023-04-15T13:28:59.659Z,98935.59
2023-04-15T13:31:26.699Z,98939.72
2023-04-15T13:33:53.441Z,98923.84
2023-04-15T13:36:19.816Z,98943.69
2023-04-15T13:38:48.666Z,98935.00
2023-04-15T13:41:16.931Z,98951.38
2023-04-15T13:43:43.663Z,98957.56
2023-04-15T13:46:10.358Z,98963.19
2023-04-15T13:48:37.044Z,98964.56
2023-04-15T13:51:03.460Z,98967.44
2023-04-15T13:53:37.832Z,98969.22
2023-04-15T13:56:06.955Z,98973.63
2023-04-15T13:58:33.839Z,98981.78
2023-04-15T14:01:00.885Z,98981.38
2023-04-15T14:03:28.535Z,98990.38
2023-04-15T14:05:57.152Z,98998.69
2023-04-15T14:08:25.241Z,99000.53
2023-04-15T14:10:51.861Z,99001.38
2023-04-15T14:13:19.456Z,99009.38
2023-04-15T14:15:45.931Z,99000.34
2023-04-15T14:18:12.729Z,99004.66
2023-04-15T14:20:39.066Z,99006.50
2023-04-15T14:23:05.875Z,98995.50
2023-04-15T14:25:34.079Z,99003.72
2023-04-15T14:28:01.748Z,99004.88
2023-04-15T14:30:28.244Z,99005.97
2023-04-15T14:32:54.757Z,99007.81
2023-04-15T14:35:21.167Z,99013.59
2023-04-15T14:37:47.579Z,99012.16
2023-04-15T14:40:13.965Z,99025.56
2023-04-15T14:42:40.942Z,99020.66
2023-04-15T14:45:07.906Z,99025.88
2023-04-15T14:47:34.593Z,99027.53
2023-04-15T14:50:01.056Z,99025.59
2023-04-15T14:52:27.466Z,99032.19
2023-04-15T14:54:53.847Z,99031.91
2023-04-15T14:57:20.634Z,99031.09
2023-04-15T14:59:47.040Z,99032.34
2023-04-15T15:02:17.344Z,99040.22
2023-04-15T15:04:53.170Z,99048.97
2023-04-15T15:07:19.671Z,99057.84
2023-04-15T15:09:46.680Z,99051.06
2023-04-15T15:12:13.019Z,99054.75
2023-04-15T15:14:39.453Z,99057.13
2023-04-15T15:17:06.013Z,99061.50
2023-04-15T15:19:33.381Z,99060.22
2023-04-15T15:21:59.719Z,99062.91
2023-04-15T15:24:26.099Z,99074.75
2023-04-15T15:26:52.527Z,99069.97
2023-04-15T15:29:19.207Z,99075.47
2023-04-15T15:31:45.630Z,99082.25
2023-04-15T15:34:12.164Z,99085.91
2023-04-15T15:36:38.538Z,99088.00
2023-04-15T15:39:05.374Z,99092.81
2023-04-15T15:41:33.272Z,99097.84
2023-04-15T15:44:00.830Z,99090.56
2023-04-15T15:46:31.233Z,99091.41
2023-04-15T15:48:58.261Z,99094.63
2023-04-15T15:51:24.715Z,99097.84
2023-04-15T15:53:51.131Z,99106.03
2023-04-15T15:56:17.493Z,99113.63
2023-04-15T15:58:44.984Z,99114.06
2023-04-15T16:01:11.852Z,99115.31
2023-04-15T16:03:38.494Z,99123.47
2023-04-15T16:06:05.335Z,99128.13
2023-04-15T16:08:31.676Z,99133.03
2023-04-15T16:10:58.640Z,99136.84
2023-04-15T16:13:25.151Z,99134.69
2023-04-15T16:15:51.536Z,99136.41
2023-04-15T16:18:18.610Z,99129.50
2023-04-15T16:20:45.130Z,99139.47
2023-04-15T16:23:16.511Z,99140.63
2023-04-15T16:25:44.499Z,99152.41
2023-04-15T16:28:25.043Z,99145.97
2023-04-15T16:30:53.404Z,99144.25
2023-04-15T16:33:20.129Z,99154.25
2023-04-15T16:35:46.484Z,99151.31
2023-04-15T16:38:13.122Z,99154.97
2023-04-15T16:40:39.554Z,99162.16
2023-04-15T16:43:11.376Z,99165.66
2023-04-15T16:45:38.145Z,99165.66
2023-04-15T16:48:05.039Z,99166.50
2023-04-15T16:50:31.620Z,99164.69
2023-04-15T16:52:58.266Z,99169.84
2023-04-15T16:55:24.642Z,99170.94
2023-04-15T16:58:02.418Z,99174.91
2023-04-15T17:00:35.962Z,99182.22
2023-04-15T17:03:03.730Z,99175.72
2023-04-15T17:05:30.985Z,99185.69
2023-04-15T17:07:58.211Z,99189.63
2023-04-15T17:10:24.575Z,99193.72
2023-04-15T17:12:52.074Z,99194.84
2023-04-15T17:15:19.487Z,99205.56
2023-04-15T17:17:45.887Z,99209.31
2023-04-15T17:20:12.585Z,99216.38
2023-04-15T17:22:39.229Z,99213.00
2023-04-15T17:25:06.172Z,99221.47
2023-04-15T17:27:32.611Z,99220.16
2023-04-15T17:29:58.971Z,99222.97
2023-04-15T17:32:31.403Z,99214.47
2023-04-15T17:34:57.811Z,99224.59
2023-04-15T17:37:24.535Z,99231.19
2023-04-15T17:39:51.264Z,99237.94
2023-04-15T17:42:17.853Z,99241.69
2023-04-15T17:44:45.463Z,99246.22
2023-04-15T17:47:11.905Z,99252.66
2023-04-15T17:49:38.334Z,99255.44
2023-04-15T17:52:05.205Z,99250.09
2023-04-15T17:54:31.644Z,99254.16
2023-04-15T17:56:59.237Z,99264.72
2023-04-15T17:59:26.026Z,99259.50
2023-04-15T18:01:52.489Z,99269.34
2023-04-15T18:04:19.014Z,99277.63
2023-04-15T18:06:45.482Z,99274.22
2023-04-15T18:09:12.276Z,99276.78
2023-04-15T18:11:39.948Z,99278.06
2023-04-15T18:14:06.878Z,99283.94
2023-04-15T18:16:33.651Z,99294.16
2023-04-15T18:19:00.359Z,99285.19
2023-04-15T18:21:27.042Z,99287.00
2023-04-15T18:23:53.678Z,99294.44
2023-04-15T18:26:20.112Z,99300.97
2023-04-15T18:28:46.459Z,99297.94
2023-04-15T18:31:12.825Z,99308.50
2023-04-15T18:33:39.575Z,99309.47
2023-04-15T18:36:06.156Z,99323.84
2023-04-15T18:38:33.166Z,99327.34
2023-04-15T18:40:59.506Z,99331.19
2023-04-15T18:43:25.849Z,99340.56
2023-04-15T18:45:52.907Z,99340.34
2023-04-15T18:48:19.320Z,99344.75
2023-04-15T18:50:45.859Z,99351.50
2023-04-15T18:53:12.315Z,99349.81
2023-04-15T18:55:39.540Z,99351.50
2023-04-15T18:58:09.125Z,99356.84
2023-04-15T19:00:38.877Z,99361.50
2023-04-15T19:03:06.493Z,99363.63
2023-04-15T19:05:33.571Z,99363.63
2023-04-15T19:08:00.000Z,99361.13
2023-04-15T19:10:27.934Z,99366.84
2023-04-15T19:12:55.756Z,99368.25
2023-04-15T19:15:22.605Z,99378.47
2023-04-15T19:17:48.975Z,99380.19
2023-04-15T19:20:15.773Z,99386.75
2023-04-15T19:22:43.039Z,99383.09
2023-04-15T19:25:09.775Z,99388.22
2023-04-15T19:27:38.053Z,99393.66
2023-04-15T19:30:06.348Z,99395.00
2023-04-15T19:32:32.794Z,99396.22
2023-04-15T19:34:59.215Z,99405.44
2023-04-15T19:37:25.641Z,99397.59
2023-04-15T19:39:53.987Z,99399.25
2023-04-15T19:42:20.378Z,99406.19
2023-04-15T19:44:47.124Z,99407.28
2023-04-15T19:47:13.551Z,99417.50
2023-04-15T19:49:40.370Z,99418.34
2023-04-15T19:52:07.144Z,99417.63
2023-04-15T19:54:33.535Z,99419.81
2023-04-15T19:57:00.186Z,99422.00
2023-04-15T19:59:26.576Z,99429.28
2023-04-15T20:01:53.288Z,99423.34
2023-04-15T20:04:19.841Z,99426.16
2023-04-15T20:06:46.270Z,99425.03
2023-04-15T20:09:12.967Z,99429.53
2023-04-15T20:12:46.880Z,99426.75
2023-04-15T20:14:26.881Z,99436.44
2023-04-15T20:16:53.283Z,99441.91
2023-04-15T20:19:20.615Z,99440.47
2023-04-15T20:21:47.078Z,99440.47
2023-04-15T20:24:13.780Z,99443.84
2023-04-15T20:26:40.140Z,99446.41
2023-04-15T20:29:06.685Z,99445.09
2023-04-15T20:31:33.868Z,99452.84
2023-04-15T20:34:00.329Z,99456.00
2023-04-15T20:36:26.868Z,99450.53
2023-04-15T20:38:53.212Z,99458.19
2023-04-15T20:41:19.591Z,99455.75
2023-04-15T20:43:45.986Z,99461.84
2023-04-15T20:46:20.584Z,99463.06
2023-04-15T20:48:47.996Z,99463.16
2023-04-15T20:51:15.294Z,99460.03
2023-04-15T20:53:42.005Z,99475.22
2023-04-15T20:56:08.514Z,99475.94
2023-04-15T20:58:34.970Z,99470.81
2023-04-15T21:01:02.147Z,99470.72
2023-04-15T21:03:28.877Z,99473.25
2023-04-15T21:05:55.677Z,99485.91
2023-04-15T21:08:28.963Z,99478.59
2023-04-15T21:10:56.627Z,99485.38
2023-04-15T21:13:23.949Z,99487.56
2023-04-15T21:15:53.222Z,99488.69
2023-04-15T21:18:21.324Z,99481.63
2023-04-15T21:20:56.776Z,99486.25
2023-04-15T21:23:23.408Z,99488.53
2023-04-15T21:25:49.848Z,99487.94
2023-04-15T21:28:16.272Z,99494.72
2023-04-15T21:30:42.637Z,99502.63
2023-04-15T21:33:09.168Z,99506.53
2023-04-15T21:35:35.923Z,99501.19
2023-04-15T21:38:02.347Z,99507.31
2023-04-15T21:40:29.290Z,99519.59
2023-04-15T21:42:55.702Z,99523.22
2023-04-15T21:45:22.351Z,99531.25
2023-04-15T21:48:04.402Z,99525.56
2023-04-15T21:50:36.587Z,99535.41
2023-04-15T21:53:04.100Z,99534.69
2023-04-15T21:55:30.453Z,99536.97
2023-04-15T21:57:56.800Z,99540.75
2023-04-15T22:00:24.562Z,99543.53
2023-04-15T22:02:52.217Z,99540.84
2023-04-15T22:05:19.178Z,99544.59
2023-04-15T22:07:45.842Z,99546.44
2023-04-15T22:10:12.673Z,99545.19
2023-04-15T22:12:42.315Z,99553.59
2023-04-15T22:15:09.098Z,99558.06
2023-04-15T22:17:35.565Z,99553.81
2023-04-15T22:20:02.393Z,99557.44
2023-04-15T22:22:33.473Z,99564.03
2023-04-15T22:25:10.315Z,99562.44
2023-04-15T22:27:36.657Z,99557.72
2023-04-15T22:30:03.251Z,99566.22
2023-04-15T22:32:29.714Z,99570.44
2023-04-15T22:34:56.215Z,99573.25
2023-04-15T22:37:23.853Z,99568.13
2023-04-15T22:39:50.500Z,99583.19
2023-04-15T22:42:16.864Z,99578.47
2023-04-15T22:44:43.196Z,99573.34
2023-04-15T22:47:09.997Z,99575.06
2023-04-15T22:49:36.467Z,99573.72
2023-04-15T22:52:02.852Z,99579.06
2023-04-15T22:54:29.292Z,99587.06
2023-04-15T22:56:56.346Z,99586.09
2023-04-15T22:59:22.794Z,99596.31
2023-04-15T23:01:49.395Z,99594.25
2023-04-15T23:04:23.286Z,99594.59
2023-04-15T23:06:53.795Z,99602.38
2023-04-15T23:09:21.182Z,99599.72
2023-04-15T23:11:48.206Z,99591.81
2023-04-15T23:14:14.559Z,99594.09
2023-04-15T23:16:41.243Z,99590.97
2023-04-15T23:19:08.187Z,99598.25
2023-04-15T23:21:34.838Z,99593.97
2023-04-15T23:24:01.205Z,99591.19
2023-04-15T23:26:27.761Z,99598.72
2023-04-15T23:28:54.475Z,99591.44
2023-04-15T23:31:21.556Z,99594.59
2023-04-15T23:33:47.983Z,99601.16
2023-04-15T23:36:14.645Z,99594.81
2023-04-15T23:38:42.007Z,99594.09
2023-04-15T23:41:10.004Z,99597.28
2023-04-15T23:43:36.794Z,99600.16
2023-04-15T23:46:03.533Z,99604.16
2023-04-15T23:48:30.107Z,99596.75
2023-04-15T23:50:56.516Z,99607.66
2023-04-15T23:53:23.246Z,99606.50
2023-04-15T23:55:49.694Z,99603.81
2023-04-15T23:58:16.584Z,99603.53
